createdAt,value
2023-05-19T00:00:58.319Z,6.60
2023-05-19T00:05:03.035Z,6.60
2023-05-19T00:09:08.208Z,6.60
2023-05-19T00:13:14.059Z,6.60
2023-05-19T00:17:18.149Z,6.60
2023-05-19T00:21:21.999Z,6.60
2023-05-19T00:25:26.013Z,6.50
2023-05-19T00:29:30.871Z,6.50
2023-05-19T00:33:35.093Z,6.50
2023-05-19T00:37:38.545Z,6.60
2023-05-19T00:41:42.351Z,6.60
2023-05-19T00:45:47.727Z,6.60
2023-05-19T00:49:51.267Z,6.60
2023-05-19T00:53:56.844Z,6.60
2023-05-19T00:58:00.481Z,6.60
2023-05-19T01:02:05.908Z,6.60
2023-05-19T01:06:09.540Z,6.60
2023-05-19T01:10:13.381Z,6.60
2023-05-19T01:14:17.348Z,6.60
2023-05-19T01:18:30.760Z,6.60
2023-05-19T01:22:48.386Z,6.60
2023-05-19T01:27:15.121Z,6.60
2023-05-19T01:31:24.887Z,6.50
2023-05-19T01:35:29.274Z,6.50
2023-05-19T01:39:35.120Z,6.50
2023-05-19T01:43:39.901Z,6.50
2023-05-19T01:47:48.177Z,6.50
2023-05-19T01:51:51.983Z,6.40
2023-05-19T01:55:57.654Z,6.40
2023-05-19T02:00:11.876Z,6.40
2023-05-19T02:04:33.365Z,6.40
2023-05-19T02:08:44.831Z,6.40
2023-05-19T02:12:50.613Z,6.40
2023-05-19T02:16:58.661Z,6.40
2023-05-19T02:21:03.800Z,6.30
2023-05-19T02:25:08.139Z,6.30
2023-05-19T02:29:11.720Z,6.30
2023-05-19T02:33:15.479Z,6.30
2023-05-19T02:37:23.956Z,6.30
2023-05-19T02:41:27.727Z,6.20
2023-05-19T02:45:31.248Z,6.20
2023-05-19T02:49:36.262Z,6.20
2023-05-19T02:53:47.409Z,6.20
2023-05-19T02:57:50.812Z,6.10
2023-05-19T03:01:57.609Z,6.10
2023-05-19T03:06:02.032Z,6.10
2023-05-19T03:10:08.972Z,6.10
2023-05-19T03:14:13.755Z,6.00
2023-05-19T03:18:19.443Z,6.00
2023-05-19T03:22:24.240Z,6.00
2023-05-19T03:26:31.382Z,5.90
2023-05-19T03:30:35.033Z,5.90
2023-05-19T03:34:44.853Z,5.90
2023-05-19T03:38:49.050Z,5.80
2023-05-19T03:42:54.631Z,5.80
2023-05-19T03:46:58.348Z,5.80
2023-05-19T03:51:36.805Z,5.80
2023-05-19T03:55:56.858Z,5.80
2023-05-19T04:00:11.370Z,5.80
2023-05-19T04:04:17.744Z,5.80
2023-05-19T04:08:22.432Z,5.90
2023-05-19T04:12:25.974Z,5.90
2023-05-19T04:16:32.171Z,6.00
2023-05-19T04:20:35.693Z,6.00
2023-05-19T04:24:40.134Z,6.00
2023-05-19T04:28:44.819Z,6.00
2023-05-19T04:32:52.187Z,6.00
2023-05-19T04:36:55.882Z,6.10
2023-05-19T04:41:01.853Z,6.00
2023-05-19T04:45:08.912Z,6.00
2023-05-19T04:49:19.621Z,6.10
2023-05-19T04:53:23.305Z,6.10
2023-05-19T04:57:26.918Z,6.10
2023-05-19T05:01:31.479Z,6.00
2023-05-19T05:05:37.096Z,6.10
2023-05-19T05:09:40.678Z,6.20
2023-05-19T05:13:45.136Z,6.20
2023-05-19T05:17:49.509Z,6.20
2023-05-19T05:21:55.775Z,6.30
2023-05-19T05:26:00.146Z,6.30
2023-05-19T05:30:05.246Z,6.20
2023-05-19T05:34:09.063Z,6.20
2023-05-19T05:38:16.342Z,6.20
2023-05-19T05:42:20.699Z,6.10
2023-05-19T05:46:26.201Z,6.20
2023-05-19T05:50:30.610Z,6.30
2023-05-19T05:54:37.371Z,6.40
2023-05-19T05:58:41.230Z,6.40
2023-05-19T06:02:48.571Z,6.50
2023-05-19T06:06:55.130Z,6.70
2023-05-19T06:11:08.284Z,6.80
2023-05-19T06:15:12.812Z,7.20
2023-05-19T06:19:16.846Z,7.30
2023-05-19T06:23:21.045Z,7.50
2023-05-19T06:27:27.282Z,7.30
2023-05-19T06:31:31.546Z,7.20
2023-05-19T06:35:42.293Z,7.20
2023-05-19T06:39:48.231Z,7.20
2023-05-19T06:43:53.321Z,7.10
2023-05-19T06:47:59.640Z,7.10
2023-05-19T06:52:03.574Z,7.20
2023-05-19T06:56:08.206Z,7.30
2023-05-19T07:00:20.606Z,7.50
2023-05-19T07:04:27.538Z,7.70
2023-05-19T07:08:33.015Z,7.90
2023-05-19T07:12:39.127Z,8.00
2023-05-19T07:16:45.111Z,8.40
2023-05-19T07:20:48.801Z,8.70
2023-05-19T07:24:52.852Z,8.70
2023-05-19T07:28:56.981Z,8.80
2023-05-19T07:33:03.374Z,9.10
2023-05-19T07:37:07.181Z,9.10
2023-05-19T07:41:13.202Z,9.20
2023-05-19T07:45:18.184Z,9.20
2023-05-19T07:49:25.121Z,9.50
2023-05-19T07:53:31.246Z,9.80
2023-05-19T07:57:34.972Z,10.30
2023-05-19T08:01:38.555Z,10.70
2023-05-19T08:05:43.459Z,10.90
2023-05-19T08:09:48.057Z,10.60
2023-05-19T08:13:51.878Z,10.20
2023-05-19T08:17:55.573Z,10.20
2023-05-19T08:22:01.409Z,10.20
2023-05-19T08:26:05.122Z,10.30
2023-05-19T08:30:09.881Z,10.50
2023-05-19T08:34:13.449Z,10.60
2023-05-19T08:38:18.554Z,10.70
2023-05-19T08:42:22.235Z,10.80
2023-05-19T08:46:27.052Z,10.70
2023-05-19T08:50:33.598Z,10.50
2023-05-19T08:54:45.374Z,10.40
2023-05-19T08:58:51.030Z,10.40
2023-05-19T09:03:00.734Z,10.20
2023-05-19T09:07:11.000Z,10.20
2023-05-19T09:11:16.401Z,10.20
2023-05-19T09:15:20.377Z,10.20
2023-05-19T09:19:24.171Z,10.20
2023-05-19T09:23:29.579Z,10.10
2023-05-19T09:27:35.512Z,10.20
2023-05-19T09:31:39.076Z,10.50
2023-05-19T09:35:48.413Z,10.70
2023-05-19T09:39:53.079Z,10.90
2023-05-19T09:43:58.159Z,11.00
2023-05-19T09:48:05.841Z,10.90
2023-05-19T09:52:10.501Z,10.70
2023-05-19T09:56:16.467Z,10.70
2023-05-19T10:00:22.268Z,10.90
2023-05-19T10:04:27.200Z,10.80
2023-05-19T10:08:31.993Z,11.00
2023-05-19T10:12:35.966Z,11.10
2023-05-19T10:16:41.806Z,11.70
2023-05-19T10:20:45.716Z,11.70
2023-05-19T10:24:49.150Z,11.80
2023-05-19T10:28:53.097Z,11.60
2023-05-19T10:32:58.748Z,11.30
2023-05-19T10:37:15.424Z,11.30
2023-05-19T10:41:28.138Z,11.50
2023-05-19T10:45:35.039Z,11.50
2023-05-19T10:49:41.571Z,11.40
2023-05-19T10:53:51.870Z,11.30
2023-05-19T10:57:58.149Z,11.20
2023-05-19T11:02:05.529Z,11.30
2023-05-19T11:06:27.543Z,11.30
2023-05-19T11:10:31.154Z,11.20
2023-05-19T11:14:36.126Z,11.00
2023-05-19T11:18:39.859Z,11.00
2023-05-19T11:23:03.052Z,10.80
2023-05-19T11:27:26.220Z,10.70
2023-05-19T11:31:31.582Z,10.80
2023-05-19T11:35:36.519Z,11.00
2023-05-19T11:39:42.611Z,11.10
2023-05-19T11:43:48.571Z,11.30
2023-05-19T11:52:05.028Z,11.40
2023-05-19T11:56:11.155Z,11.50
2023-05-19T12:00:15.574Z,11.60
2023-05-19T12:04:20.979Z,11.90
2023-05-19T12:08:24.499Z,11.90
2023-05-19T12:12:31.316Z,11.90
2023-05-19T12:16:35.694Z,11.90
2023-05-19T12:20:39.410Z,12.20
2023-05-19T12:24:44.978Z,12.30
2023-05-19T12:28:52.839Z,12.40
2023-05-19T12:32:57.095Z,12.50
2023-05-19T12:37:03.355Z,12.90
2023-05-19T12:41:07.746Z,12.90
2023-05-19T12:45:13.111Z,12.70
2023-05-19T12:49:17.229Z,12.60
2023-05-19T12:53:20.902Z,12.60
2023-05-19T12:57:24.660Z,12.60
2023-05-19T13:01:31.586Z,12.50
2023-05-19T13:05:36.985Z,12.50
2023-05-19T13:09:40.460Z,12.40
2023-05-19T13:13:44.103Z,12.30
2023-05-19T13:17:49.007Z,12.50
2023-05-19T13:21:52.547Z,12.60
2023-05-19T13:25:56.356Z,12.50
2023-05-19T13:30:00.019Z,12.30
2023-05-19T13:34:06.553Z,12.20
2023-05-19T13:38:11.386Z,12.30
2023-05-19T13:42:14.810Z,12.50
2023-05-19T13:46:20.566Z,12.40
2023-05-19T13:50:27.382Z,12.10
2023-05-19T13:54:30.886Z,12.10
2023-05-19T13:58:35.030Z,12.20
2023-05-19T14:02:39.512Z,12.20
2023-05-19T14:06:44.964Z,12.10
2023-05-19T14:10:48.545Z,12.00
2023-05-19T14:14:52.313Z,12.00
2023-05-19T14:18:55.890Z,11.90
2023-05-19T14:23:00.767Z,11.90
2023-05-19T14:27:04.306Z,11.90
2023-05-19T14:31:08.246Z,11.80
2023-05-19T14:35:12.060Z,11.80
2023-05-19T14:39:17.267Z,11.80
2023-05-19T14:43:20.876Z,11.80
2023-05-19T14:47:26.196Z,11.70
2023-05-19T14:51:31.774Z,11.60
2023-05-19T14:55:36.847Z,11.50
2023-05-19T14:59:40.855Z,11.50
2023-05-19T15:03:44.319Z,11.50
2023-05-19T15:07:48.199Z,11.60
2023-05-19T15:11:53.167Z,11.60
2023-05-19T15:16:08.389Z,11.70
2023-05-19T15:20:19.928Z,11.70
2023-05-19T15:24:23.421Z,11.70
2023-05-19T15:28:30.416Z,11.60
2023-05-19T15:32:34.320Z,11.70
2023-05-19T15:36:40.042Z,11.70
2023-05-19T15:40:43.952Z,11.60
2023-05-19T15:44:49.106Z,11.50
2023-05-19T15:48:52.880Z,11.60
2023-05-19T15:52:56.360Z,11.50
2023-05-19T15:57:00.041Z,11.40
2023-05-19T16:01:05.228Z,11.60
2023-05-19T16:05:09.644Z,11.50
2023-05-19T16:09:13.172Z,11.40
2023-05-19T16:13:16.815Z,11.40
2023-05-19T16:17:21.855Z,11.50
2023-05-19T16:21:25.539Z,11.50
2023-05-19T16:25:29.094Z,11.50
2023-05-19T16:29:32.665Z,11.50
2023-05-19T16:33:38.262Z,11.50
2023-05-19T16:37:56.911Z,11.30
2023-05-19T16:42:06.370Z,11.20
2023-05-19T16:46:21.353Z,11.20
2023-05-19T16:50:41.754Z,11.10
2023-05-19T16:54:49.287Z,11.20
2023-05-19T16:59:06.870Z,11.30
2023-05-19T17:03:15.847Z,11.30
2023-05-19T17:07:39.047Z,11.40
2023-05-19T17:11:52.512Z,11.50
2023-05-19T17:16:03.898Z,11.50
2023-05-19T17:20:13.525Z,11.50
2023-05-19T17:24:20.499Z,11.40
2023-05-19T17:28:40.746Z,11.40
2023-05-19T17:33:01.562Z,11.40
2023-05-19T17:37:12.073Z,11.50
2023-05-19T17:41:20.322Z,11.50
2023-05-19T17:45:31.411Z,11.50
2023-05-19T17:49:39.772Z,11.50
2023-05-19T17:53:48.763Z,11.40
2023-05-19T17:58:03.748Z,11.30
2023-05-19T18:02:13.483Z,11.40
2023-05-19T18:06:24.151Z,11.30
2023-05-19T18:10:30.279Z,11.30
2023-05-19T18:14:38.896Z,11.30
2023-05-19T18:18:53.162Z,11.20
2023-05-19T18:22:59.751Z,11.20
2023-05-19T18:27:09.030Z,11.20
2023-05-19T18:31:22.123Z,11.20
2023-05-19T18:35:27.855Z,11.10
2023-05-19T18:39:39.073Z,11.10
2023-05-19T18:43:43.093Z,11.10
2023-05-19T18:47:49.339Z,11.10
2023-05-19T18:51:53.319Z,11.10
2023-05-19T18:55:57.116Z,11.00
2023-05-19T19:00:00.940Z,10.90
2023-05-19T19:04:06.164Z,10.90
2023-05-19T19:08:17.508Z,11.00
2023-05-19T19:12:29.642Z,10.90
2023-05-19T19:16:47.808Z,11.00
2023-05-19T19:20:55.443Z,11.00
2023-05-19T19:24:59.319Z,10.90
2023-05-19T19:29:03.153Z,10.90
2023-05-19T19:33:07.911Z,10.90
2023-05-19T19:37:14.524Z,10.80
2023-05-19T19:41:21.250Z,10.80
2023-05-19T19:45:24.823Z,10.80
2023-05-19T19:49:28.290Z,10.80
2023-05-19T19:53:33.619Z,11.00
2023-05-19T19:57:37.043Z,10.90
2023-05-19T20:01:41.380Z,11.00
2023-05-19T20:05:45.262Z,11.00
2023-05-19T20:09:51.784Z,10.90
2023-05-19T20:13:56.799Z,10.90
2023-05-19T20:18:02.428Z,10.80
2023-05-19T20:22:07.837Z,10.80
2023-05-19T20:26:13.748Z,10.90
2023-05-19T20:30:17.329Z,10.90
2023-05-19T20:34:21.009Z,10.80
2023-05-19T20:38:24.521Z,10.80
2023-05-19T20:42:29.692Z,10.80
2023-05-19T20:46:33.353Z,10.80
2023-05-19T20:50:36.982Z,10.70
2023-05-19T20:54:41.731Z,10.70
2023-05-19T20:58:46.757Z,10.70
2023-05-19T21:02:50.586Z,10.70
2023-05-19T21:06:54.191Z,10.70
2023-05-19T21:10:58.145Z,10.70
2023-05-19T21:15:03.855Z,10.70
2023-05-19T21:19:07.875Z,10.70
2023-05-19T21:23:11.328Z,10.70
2023-05-19T21:27:15.039Z,10.70
2023-05-19T21:31:19.989Z,10.60
2023-05-19T21:35:23.760Z,10.70
2023-05-19T21:39:27.193Z,10.60
2023-05-19T21:43:30.734Z,10.60
2023-05-19T21:47:35.899Z,10.50
2023-05-19T21:51:39.395Z,10.50
2023-05-19T21:55:42.802Z,10.40
2023-05-19T21:59:46.219Z,10.40
2023-05-19T22:03:51.250Z,10.30
2023-05-19T22:07:54.712Z,10.30
2023-05-19T22:11:58.513Z,10.20
2023-05-19T22:16:04.593Z,10.10
2023-05-19T22:20:12.373Z,10.10
2023-05-19T22:24:16.281Z,9.90
2023-05-19T22:28:19.979Z,9.90
2023-05-19T22:32:23.539Z,9.90
2023-05-19T22:36:29.490Z,9.80
2023-05-19T22:40:33.276Z,9.80
2023-05-19T22:44:36.987Z,9.80
2023-05-19T22:48:40.578Z,9.70
2023-05-19T22:52:45.428Z,9.60
2023-05-19T22:56:49.104Z,9.60
2023-05-19T23:00:52.653Z,9.50
2023-05-19T23:04:56.153Z,9.40
2023-05-19T23:09:03.309Z,9.30
2023-05-19T23:13:06.774Z,9.30
2023-05-19T23:17:10.278Z,9.30
2023-05-19T23:21:13.686Z,9.20
2023-05-19T23:25:20.648Z,9.10
2023-05-19T23:29:24.175Z,9.10
2023-05-19T23:33:28.726Z,9.10
2023-05-19T23:37:32.176Z,9.00
2023-05-19T23:41:37.310Z,8.90
2023-05-19T23:45:41.130Z,8.90
2023-05-19T23:49:44.863Z,8.80
2023-05-19T23:53:48.472Z,8.80
2023-05-19T23:57:53.398Z,8.80
